sensor_id;sensor_type;location;lat;lon;timestamp;P1;durP1;ratioP1;P2;durP2;ratioP2
25687;SDS011;17407;51.120;3.702;2023-12-04T00:00:15;15.40;;;8.07;;
25687;SDS011;17407;51.120;3.702;2023-12-04T00:02:41;13.93;;;7.68;;
25687;SDS011;17407;51.120;3.702;2023-12-04T00:05:07;19.95;;;9.48;;
25687;SDS011;17407;51.120;3.702;2023-12-04T00:07:33;14.82;;;8.25;;
25687;SDS011;17407;51.120;3.702;2023-12-04T00:09:58;15.73;;;8.20;;
25687;SDS011;17407;51.120;3.702;2023-12-04T00:12:24;14.52;;;8.65;;
25687;SDS011;17407;51.120;3.702;2023-12-04T00:14:50;13.45;;;7.00;;
25687;SDS011;17407;51.120;3.702;2023-12-04T00:17:15;16.23;;;9.38;;
25687;SDS011;17407;51.120;3.702;2023-12-04T00:19:41;17.13;;;8.77;;
25687;SDS011;17407;51.120;3.702;2023-12-04T00:22:07;15.88;;;8.32;;
25687;SDS011;17407;51.120;3.702;2023-12-04T00:24:33;14.40;;;8.02;;
25687;SDS011;17407;51.120;3.702;2023-12-04T00:26:58;16.45;;;8.07;;
25687;SDS011;17407;51.120;3.702;2023-12-04T00:29:24;16.05;;;9.00;;
25687;SDS011;17407;51.120;3.702;2023-12-04T00:31:49;14.82;;;8.52;;
25687;SDS011;17407;51.120;3.702;2023-12-04T00:34:15;14.98;;;7.82;;
25687;SDS011;17407;51.120;3.702;2023-12-04T00:36:41;14.98;;;7.40;;
25687;SDS011;17407;51.120;3.702;2023-12-04T00:39:06;11.93;;;6.93;;
25687;SDS011;17407;51.120;3.702;2023-12-04T00:41:33;12.25;;;7.10;;
25687;SDS011;17407;51.120;3.702;2023-12-04T00:43:59;13.15;;;7.47;;
25687;SDS011;17407;51.120;3.702;2023-12-04T00:46:24;11.73;;;7.25;;
25687;SDS011;17407;51.120;3.702;2023-12-04T00:48:50;10.15;;;6.80;;
25687;SDS011;17407;51.120;3.702;2023-12-04T00:51:16;14.38;;;7.50;;
25687;SDS011;17407;51.120;3.702;2023-12-04T00:53:42;13.90;;;7.13;;
25687;SDS011;17407;51.120;3.702;2023-12-04T00:56:08;14.52;;;7.93;;
25687;SDS011;17407;51.120;3.702;2023-12-04T00:58:34;13.18;;;7.47;;
25687;SDS011;17407;51.120;3.702;2023-12-04T01:01:00;13.30;;;8.40;;
25687;SDS011;17407;51.120;3.702;2023-12-04T01:03:25;13.90;;;7.38;;
25687;SDS011;17407;51.120;3.702;2023-12-04T01:05:51;11.23;;;6.63;;
25687;SDS011;17407;51.120;3.702;2023-12-04T01:08:17;13.57;;;8.48;;
25687;SDS011;17407;51.120;3.702;2023-12-04T01:10:42;13.77;;;7.80;;
25687;SDS011;17407;51.120;3.702;2023-12-04T01:13:08;14.35;;;7.97;;
25687;SDS011;17407;51.120;3.702;2023-12-04T01:15:34;14.32;;;7.55;;
25687;SDS011;17407;51.120;3.702;2023-12-04T01:18:00;14.57;;;7.40;;
25687;SDS011;17407;51.120;3.702;2023-12-04T01:20:26;12.55;;;7.20;;
25687;SDS011;17407;51.120;3.702;2023-12-04T01:22:52;13.35;;;7.72;;
25687;SDS011;17407;51.120;3.702;2023-12-04T01:25:18;12.90;;;7.45;;
25687;SDS011;17407;51.120;3.702;2023-12-04T01:27:44;12.90;;;7.70;;
25687;SDS011;17407;51.120;3.702;2023-12-04T01:30:09;13.57;;;7.75;;
25687;SDS011;17407;51.120;3.702;2023-12-04T01:32:36;13.73;;;7.32;;
25687;SDS011;17407;51.120;3.702;2023-12-04T01:35:01;10.75;;;6.78;;
25687;SDS011;17407;51.120;3.702;2023-12-04T01:37:27;12.63;;;7.78;;
25687;SDS011;17407;51.120;3.702;2023-12-04T01:39:53;12.80;;;7.13;;
25687;SDS011;17407;51.120;3.702;2023-12-04T01:42:19;12.77;;;6.70;;
25687;SDS011;17407;51.120;3.702;2023-12-04T01:44:44;12.48;;;6.43;;
25687;SDS011;17407;51.120;3.702;2023-12-04T01:47:10;11.25;;;6.45;;
25687;SDS011;17407;51.120;3.702;2023-12-04T01:49:36;12.65;;;6.88;;
25687;SDS011;17407;51.120;3.702;2023-12-04T01:52:02;12.18;;;6.38;;
25687;SDS011;17407;51.120;3.702;2023-12-04T01:54:29;10.65;;;6.30;;
25687;SDS011;17407;51.120;3.702;2023-12-04T01:56:55;10.00;;;6.72;;
25687;SDS011;17407;51.120;3.702;2023-12-04T01:59:22;10.35;;;6.43;;
25687;SDS011;17407;51.120;3.702;2023-12-04T02:01:47;9.13;;;6.30;;
25687;SDS011;17407;51.120;3.702;2023-12-04T02:04:14;10.80;;;6.03;;
25687;SDS011;17407;51.120;3.702;2023-12-04T02:06:40;11.52;;;6.28;;
25687;SDS011;17407;51.120;3.702;2023-12-04T02:09:05;13.38;;;7.13;;
25687;SDS011;17407;51.120;3.702;2023-12-04T02:11:34;12.52;;;7.10;;
25687;SDS011;17407;51.120;3.702;2023-12-04T02:14:00;11.18;;;6.50;;
25687;SDS011;17407;51.120;3.702;2023-12-04T02:16:26;10.60;;;6.38;;
25687;SDS011;17407;51.120;3.702;2023-12-04T02:18:54;8.80;;;6.32;;
25687;SDS011;17407;51.120;3.702;2023-12-04T02:21:19;10.57;;;7.03;;
25687;SDS011;17407;51.120;3.702;2023-12-04T02:23:49;11.43;;;6.70;;
25687;SDS011;17407;51.120;3.702;2023-12-04T02:26:16;10.45;;;6.15;;
25687;SDS011;17407;51.120;3.702;2023-12-04T02:28:46;10.23;;;6.53;;
25687;SDS011;17407;51.120;3.702;2023-12-04T02:31:19;12.20;;;6.82;;
25687;SDS011;17407;51.120;3.702;2023-12-04T02:33:48;15.40;;;7.90;;
25687;SDS011;17407;51.120;3.702;2023-12-04T02:36:17;12.73;;;7.00;;
25687;SDS011;17407;51.120;3.702;2023-12-04T02:38:45;13.25;;;7.63;;
25687;SDS011;17407;51.120;3.702;2023-12-04T02:41:11;14.52;;;6.93;;
25687;SDS011;17407;51.120;3.702;2023-12-04T02:43:37;12.07;;;6.85;;
25687;SDS011;17407;51.120;3.702;2023-12-04T02:46:03;11.07;;;6.70;;
25687;SDS011;17407;51.120;3.702;2023-12-04T02:48:29;10.82;;;6.93;;
25687;SDS011;17407;51.120;3.702;2023-12-04T02:50:54;11.50;;;6.97;;
25687;SDS011;17407;51.120;3.702;2023-12-04T02:53:20;13.75;;;7.43;;
25687;SDS011;17407;51.120;3.702;2023-12-04T02:55:45;11.98;;;6.70;;
25687;SDS011;17407;51.120;3.702;2023-12-04T02:58:11;12.32;;;6.60;;
25687;SDS011;17407;51.120;3.702;2023-12-04T03:00:36;12.63;;;6.50;;
25687;SDS011;17407;51.120;3.702;2023-12-04T03:03:02;12.35;;;6.05;;
25687;SDS011;17407;51.120;3.702;2023-12-04T03:05:28;12.32;;;6.63;;
25687;SDS011;17407;51.120;3.702;2023-12-04T03:07:53;10.45;;;6.38;;
25687;SDS011;17407;51.120;3.702;2023-12-04T03:10:19;9.45;;;5.90;;
25687;SDS011;17407;51.120;3.702;2023-12-04T03:12:45;12.63;;;6.57;;
25687;SDS011;17407;51.120;3.702;2023-12-04T03:15:10;9.48;;;5.55;;
25687;SDS011;17407;51.120;3.702;2023-12-04T03:17:37;10.68;;;6.32;;
25687;SDS011;17407;51.120;3.702;2023-12-04T03:20:03;10.32;;;6.40;;
25687;SDS011;17407;51.120;3.702;2023-12-04T03:22:31;9.52;;;5.55;;
25687;SDS011;17407;51.120;3.702;2023-12-04T03:24:57;12.88;;;6.75;;
25687;SDS011;17407;51.120;3.702;2023-12-04T03:27:22;12.30;;;6.78;;
25687;SDS011;17407;51.120;3.702;2023-12-04T03:29:48;10.40;;;5.90;;
25687;SDS011;17407;51.120;3.702;2023-12-04T03:32:13;10.65;;;6.25;;
25687;SDS011;17407;51.120;3.702;2023-12-04T03:34:39;12.10;;;6.35;;
25687;SDS011;17407;51.120;3.702;2023-12-04T03:37:05;9.90;;;5.93;;
25687;SDS011;17407;51.120;3.702;2023-12-04T03:39:31;10.48;;;6.20;;
25687;SDS011;17407;51.120;3.702;2023-12-04T03:41:57;9.60;;;6.10;;
25687;SDS011;17407;51.120;3.702;2023-12-04T03:44:22;9.75;;;5.97;;
25687;SDS011;17407;51.120;3.702;2023-12-04T03:46:48;9.75;;;5.80;;
25687;SDS011;17407;51.120;3.702;2023-12-04T03:49:14;9.10;;;6.03;;
25687;SDS011;17407;51.120;3.702;2023-12-04T03:51:39;8.05;;;5.05;;
25687;SDS011;17407;51.120;3.702;2023-12-04T03:54:05;9.32;;;5.55;;
25687;SDS011;17407;51.120;3.702;2023-12-04T03:56:31;10.10;;;6.43;;
25687;SDS011;17407;51.120;3.702;2023-12-04T03:58:56;12.02;;;6.65;;
25687;SDS011;17407;51.120;3.702;2023-12-04T04:01:22;9.88;;;5.45;;
25687;SDS011;17407;51.120;3.702;2023-12-04T04:03:48;10.98;;;6.07;;
25687;SDS011;17407;51.120;3.702;2023-12-04T04:06:14;9.65;;;5.40;;
25687;SDS011;17407;51.120;3.702;2023-12-04T04:08:39;8.90;;;5.68;;
25687;SDS011;17407;51.120;3.702;2023-12-04T04:11:05;9.73;;;5.80;;
25687;SDS011;17407;51.120;3.702;2023-12-04T04:13:31;9.80;;;5.57;;
25687;SDS011;17407;51.120;3.702;2023-12-04T04:15:56;10.30;;;6.55;;
25687;SDS011;17407;51.120;3.702;2023-12-04T04:18:22;9.77;;;5.93;;
25687;SDS011;17407;51.120;3.702;2023-12-04T04:20:47;10.75;;;5.82;;
25687;SDS011;17407;51.120;3.702;2023-12-04T04:23:13;8.82;;;5.53;;
25687;SDS011;17407;51.120;3.702;2023-12-04T04:25:39;9.52;;;5.57;;
25687;SDS011;17407;51.120;3.702;2023-12-04T04:28:04;8.10;;;5.20;;
25687;SDS011;17407;51.120;3.702;2023-12-04T04:30:30;8.55;;;5.10;;
25687;SDS011;17407;51.120;3.702;2023-12-04T04:32:56;9.60;;;5.63;;
25687;SDS011;17407;51.120;3.702;2023-12-04T04:35:21;10.48;;;5.65;;
25687;SDS011;17407;51.120;3.702;2023-12-04T04:37:47;9.05;;;5.57;;
25687;SDS011;17407;51.120;3.702;2023-12-04T04:40:13;12.65;;;6.25;;
25687;SDS011;17407;51.120;3.702;2023-12-04T04:42:38;10.82;;;6.00;;
25687;SDS011;17407;51.120;3.702;2023-12-04T04:45:04;9.60;;;5.55;;
25687;SDS011;17407;51.120;3.702;2023-12-04T04:47:30;11.90;;;6.78;;
25687;SDS011;17407;51.120;3.702;2023-12-04T04:49:56;10.93;;;5.40;;
25687;SDS011;17407;51.120;3.702;2023-12-04T04:52:21;8.57;;;5.30;;
25687;SDS011;17407;51.120;3.702;2023-12-04T04:54:47;9.13;;;5.60;;
25687;SDS011;17407;51.120;3.702;2023-12-04T04:57:12;12.32;;;6.15;;
25687;SDS011;17407;51.120;3.702;2023-12-04T04:59:38;7.75;;;4.85;;
25687;SDS011;17407;51.120;3.702;2023-12-04T05:02:04;10.68;;;6.25;;
25687;SDS011;17407;51.120;3.702;2023-12-04T05:04:29;8.57;;;4.97;;
25687;SDS011;17407;51.120;3.702;2023-12-04T05:06:55;8.05;;;4.90;;
25687;SDS011;17407;51.120;3.702;2023-12-04T05:09:21;9.15;;;5.03;;
25687;SDS011;17407;51.120;3.702;2023-12-04T05:11:46;8.30;;;5.53;;
25687;SDS011;17407;51.120;3.702;2023-12-04T05:14:12;8.60;;;5.63;;
25687;SDS011;17407;51.120;3.702;2023-12-04T05:16:38;9.13;;;5.47;;
25687;SDS011;17407;51.120;3.702;2023-12-04T05:19:03;10.25;;;5.97;;
25687;SDS011;17407;51.120;3.702;2023-12-04T05:21:29;8.68;;;5.40;;
25687;SDS011;17407;51.120;3.702;2023-12-04T05:23:54;7.25;;;5.03;;
25687;SDS011;17407;51.120;3.702;2023-12-04T05:26:20;8.65;;;5.28;;
25687;SDS011;17407;51.120;3.702;2023-12-04T05:28:46;8.85;;;4.88;;
25687;SDS011;17407;51.120;3.702;2023-12-04T05:31:12;9.80;;;5.38;;
25687;SDS011;17407;51.120;3.702;2023-12-04T05:33:38;9.13;;;5.35;;
25687;SDS011;17407;51.120;3.702;2023-12-04T05:36:03;9.23;;;5.35;;
25687;SDS011;17407;51.120;3.702;2023-12-04T05:38:29;6.22;;;4.10;;
25687;SDS011;17407;51.120;3.702;2023-12-04T05:40:55;8.27;;;4.72;;
25687;SDS011;17407;51.120;3.702;2023-12-04T05:43:21;9.38;;;4.68;;
25687;SDS011;17407;51.120;3.702;2023-12-04T05:45:46;7.18;;;4.43;;
25687;SDS011;17407;51.120;3.702;2023-12-04T05:48:12;8.40;;;5.18;;
25687;SDS011;17407;51.120;3.702;2023-12-04T05:50:37;7.22;;;4.10;;
25687;SDS011;17407;51.120;3.702;2023-12-04T05:53:03;10.52;;;5.25;;
25687;SDS011;17407;51.120;3.702;2023-12-04T05:55:30;9.88;;;4.88;;
25687;SDS011;17407;51.120;3.702;2023-12-04T05:57:56;9.70;;;5.00;;
25687;SDS011;17407;51.120;3.702;2023-12-04T06:00:22;10.45;;;5.10;;
25687;SDS011;17407;51.120;3.702;2023-12-04T06:02:47;8.65;;;5.25;;
25687;SDS011;17407;51.120;3.702;2023-12-04T06:05:13;8.60;;;5.18;;
25687;SDS011;17407;51.120;3.702;2023-12-04T06:07:38;6.82;;;4.30;;
25687;SDS011;17407;51.120;3.702;2023-12-04T06:10:04;6.43;;;4.57;;
25687;SDS011;17407;51.120;3.702;2023-12-04T06:12:30;8.38;;;4.72;;
25687;SDS011;17407;51.120;3.702;2023-12-04T06:14:56;7.18;;;4.70;;
25687;SDS011;17407;51.120;3.702;2023-12-04T06:17:23;7.03;;;4.50;;
25687;SDS011;17407;51.120;3.702;2023-12-04T06:19:49;6.97;;;4.43;;
25687;SDS011;17407;51.120;3.702;2023-12-04T06:22:15;7.47;;;4.30;;
25687;SDS011;17407;51.120;3.702;2023-12-04T06:24:43;8.13;;;4.57;;
25687;SDS011;17407;51.120;3.702;2023-12-04T06:27:10;8.70;;;4.78;;
25687;SDS011;17407;51.120;3.702;2023-12-04T06:29:43;7.60;;;5.35;;
25687;SDS011;17407;51.120;3.702;2023-12-04T06:32:10;7.35;;;4.72;;
25687;SDS011;17407;51.120;3.702;2023-12-04T06:34:36;6.95;;;4.43;;
25687;SDS011;17407;51.120;3.702;2023-12-04T06:37:02;9.23;;;5.22;;
25687;SDS011;17407;51.120;3.702;2023-12-04T06:39:29;7.68;;;4.78;;
25687;SDS011;17407;51.120;3.702;2023-12-04T06:41:59;7.72;;;4.60;;
25687;SDS011;17407;51.120;3.702;2023-12-04T06:44:25;7.93;;;5.03;;
25687;SDS011;17407;51.120;3.702;2023-12-04T06:46:51;8.13;;;5.05;;
25687;SDS011;17407;51.120;3.702;2023-12-04T06:49:17;7.65;;;5.30;;
25687;SDS011;17407;51.120;3.702;2023-12-04T06:51:43;7.10;;;4.68;;
25687;SDS011;17407;51.120;3.702;2023-12-04T06:54:09;7.63;;;4.82;;
25687;SDS011;17407;51.120;3.702;2023-12-04T06:56:36;6.45;;;4.63;;
25687;SDS011;17407;51.120;3.702;2023-12-04T06:59:02;10.27;;;5.60;;
25687;SDS011;17407;51.120;3.702;2023-12-04T07:01:29;7.22;;;4.72;;
25687;SDS011;17407;51.120;3.702;2023-12-04T07:03:54;8.43;;;4.95;;
25687;SDS011;17407;51.120;3.702;2023-12-04T07:06:20;6.40;;;4.60;;
25687;SDS011;17407;51.120;3.702;2023-12-04T07:08:46;9.30;;;4.90;;
25687;SDS011;17407;51.120;3.702;2023-12-04T07:11:12;9.20;;;5.43;;
25687;SDS011;17407;51.120;3.702;2023-12-04T07:13:40;10.75;;;5.47;;
25687;SDS011;17407;51.120;3.702;2023-12-04T07:16:07;9.82;;;5.50;;
25687;SDS011;17407;51.120;3.702;2023-12-04T07:18:33;7.38;;;5.03;;
25687;SDS011;17407;51.120;3.702;2023-12-04T07:20:58;10.50;;;5.93;;
25687;SDS011;17407;51.120;3.702;2023-12-04T07:23:24;8.60;;;5.50;;
25687;SDS011;17407;51.120;3.702;2023-12-04T07:25:50;8.75;;;5.07;;
25687;SDS011;17407;51.120;3.702;2023-12-04T07:28:16;6.82;;;5.03;;
25687;SDS011;17407;51.120;3.702;2023-12-04T07:30:43;9.00;;;5.30;;
25687;SDS011;17407;51.120;3.702;2023-12-04T07:33:08;7.97;;;5.40;;
25687;SDS011;17407;51.120;3.702;2023-12-04T07:35:34;7.43;;;5.32;;
25687;SDS011;17407;51.120;3.702;2023-12-04T07:38:00;7.93;;;5.43;;
25687;SDS011;17407;51.120;3.702;2023-12-04T07:40:25;12.60;;;6.28;;
25687;SDS011;17407;51.120;3.702;2023-12-04T07:42:51;7.63;;;4.95;;
25687;SDS011;17407;51.120;3.702;2023-12-04T07:45:17;9.95;;;5.70;;
25687;SDS011;17407;51.120;3.702;2023-12-04T07:47:42;11.55;;;6.35;;
25687;SDS011;17407;51.120;3.702;2023-12-04T07:50:08;10.35;;;5.90;;
25687;SDS011;17407;51.120;3.702;2023-12-04T07:52:34;21.15;;;6.70;;
25687;SDS011;17407;51.120;3.702;2023-12-04T07:55:00;11.05;;;5.95;;
25687;SDS011;17407;51.120;3.702;2023-12-04T07:57:25;9.43;;;5.90;;
25687;SDS011;17407;51.120;3.702;2023-12-04T07:59:51;9.07;;;5.68;;
25687;SDS011;17407;51.120;3.702;2023-12-04T08:02:18;9.85;;;5.93;;
25687;SDS011;17407;51.120;3.702;2023-12-04T08:04:43;12.52;;;6.97;;
25687;SDS011;17407;51.120;3.702;2023-12-04T08:07:09;9.73;;;6.05;;
25687;SDS011;17407;51.120;3.702;2023-12-04T08:09:35;10.57;;;6.07;;
25687;SDS011;17407;51.120;3.702;2023-12-04T08:12:00;11.45;;;6.68;;
25687;SDS011;17407;51.120;3.702;2023-12-04T08:14:26;13.00;;;7.00;;
25687;SDS011;17407;51.120;3.702;2023-12-04T08:16:53;11.48;;;7.30;;
25687;SDS011;17407;51.120;3.702;2023-12-04T08:19:19;10.82;;;6.90;;
25687;SDS011;17407;51.120;3.702;2023-12-04T08:21:44;10.15;;;6.53;;
25687;SDS011;17407;51.120;3.702;2023-12-04T08:24:10;11.38;;;6.72;;
25687;SDS011;17407;51.120;3.702;2023-12-04T08:26:35;8.43;;;5.95;;
25687;SDS011;17407;51.120;3.702;2023-12-04T08:29:01;11.82;;;6.78;;
25687;SDS011;17407;51.120;3.702;2023-12-04T08:31:27;15.45;;;7.22;;
25687;SDS011;17407;51.120;3.702;2023-12-04T08:33:59;12.95;;;7.35;;
25687;SDS011;17407;51.120;3.702;2023-12-04T08:36:34;11.82;;;6.65;;
25687;SDS011;17407;51.120;3.702;2023-12-04T08:39:04;10.32;;;6.65;;
25687;SDS011;17407;51.120;3.702;2023-12-04T08:41:37;11.73;;;7.70;;
25687;SDS011;17407;51.120;3.702;2023-12-04T08:44:09;10.27;;;6.88;;
25687;SDS011;17407;51.120;3.702;2023-12-04T08:46:42;10.57;;;6.82;;
25687;SDS011;17407;51.120;3.702;2023-12-04T08:51:56;9.85;;;6.40;;
25687;SDS011;17407;51.120;3.702;2023-12-04T08:54:45;9.38;;;6.13;;
25687;SDS011;17407;51.120;3.702;2023-12-04T08:57:15;9.73;;;6.32;;
25687;SDS011;17407;51.120;3.702;2023-12-04T08:59:42;10.02;;;6.60;;
25687;SDS011;17407;51.120;3.702;2023-12-04T09:02:08;11.23;;;6.75;;
25687;SDS011;17407;51.120;3.702;2023-12-04T09:04:35;11.80;;;7.68;;
25687;SDS011;17407;51.120;3.702;2023-12-04T09:07:17;12.48;;;7.25;;
25687;SDS011;17407;51.120;3.702;2023-12-04T09:09:55;12.63;;;7.05;;
25687;SDS011;17407;51.120;3.702;2023-12-04T09:12:27;9.57;;;6.55;;
25687;SDS011;17407;51.120;3.702;2023-12-04T09:14:53;12.75;;;7.85;;
25687;SDS011;17407;51.120;3.702;2023-12-04T09:17:24;11.75;;;7.28;;
25687;SDS011;17407;51.120;3.702;2023-12-04T09:19:56;12.35;;;6.72;;
25687;SDS011;17407;51.120;3.702;2023-12-04T09:22:28;9.23;;;6.22;;
25687;SDS011;17407;51.120;3.702;2023-12-04T09:24:57;12.20;;;8.02;;
25687;SDS011;17407;51.120;3.702;2023-12-04T09:27:23;11.68;;;6.80;;
25687;SDS011;17407;51.120;3.702;2023-12-04T09:29:49;10.73;;;6.72;;
25687;SDS011;17407;51.120;3.702;2023-12-04T09:32:15;12.30;;;6.60;;
25687;SDS011;17407;51.120;3.702;2023-12-04T09:34:41;10.60;;;7.22;;
25687;SDS011;17407;51.120;3.702;2023-12-04T09:37:06;15.88;;;6.70;;
25687;SDS011;17407;51.120;3.702;2023-12-04T09:39:32;12.25;;;7.28;;
25687;SDS011;17407;51.120;3.702;2023-12-04T09:41:58;13.25;;;7.40;;
25687;SDS011;17407;51.120;3.702;2023-12-04T09:44:24;10.63;;;6.65;;
25687;SDS011;17407;51.120;3.702;2023-12-04T09:46:53;10.65;;;6.85;;
25687;SDS011;17407;51.120;3.702;2023-12-04T09:49:19;12.13;;;7.10;;
25687;SDS011;17407;51.120;3.702;2023-12-04T09:51:45;8.18;;;5.88;;
25687;SDS011;17407;51.120;3.702;2023-12-04T09:54:11;10.30;;;6.70;;
25687;SDS011;17407;51.120;3.702;2023-12-04T09:56:37;10.48;;;6.50;;
25687;SDS011;17407;51.120;3.702;2023-12-04T09:59:04;12.00;;;7.30;;
25687;SDS011;17407;51.120;3.702;2023-12-04T10:01:31;10.07;;;6.90;;
25687;SDS011;17407;51.120;3.702;2023-12-04T10:03:58;12.75;;;7.13;;
25687;SDS011;17407;51.120;3.702;2023-12-04T10:06:27;11.80;;;7.43;;
25687;SDS011;17407;51.120;3.702;2023-12-04T10:08:56;12.23;;;7.22;;
25687;SDS011;17407;51.120;3.702;2023-12-04T10:11:23;13.82;;;8.15;;
25687;SDS011;17407;51.120;3.702;2023-12-04T10:13:50;13.90;;;7.40;;
25687;SDS011;17407;51.120;3.702;2023-12-04T10:19:21;11.70;;;7.30;;
25687;SDS011;17407;51.120;3.702;2023-12-04T10:21:49;11.88;;;6.57;;
25687;SDS011;17407;51.120;3.702;2023-12-04T10:27:01;9.93;;;6.72;;
25687;SDS011;17407;51.120;3.702;2023-12-04T10:29:29;11.70;;;7.63;;
25687;SDS011;17407;51.120;3.702;2023-12-04T10:32:12;11.05;;;7.20;;
25687;SDS011;17407;51.120;3.702;2023-12-04T10:34:38;15.52;;;7.15;;
25687;SDS011;17407;51.120;3.702;2023-12-04T10:37:07;13.05;;;7.10;;
25687;SDS011;17407;51.120;3.702;2023-12-04T10:39:47;15.75;;;7.20;;
25687;SDS011;17407;51.120;3.702;2023-12-04T10:42:35;7.82;;;6.10;;
25687;SDS011;17407;51.120;3.702;2023-12-04T10:45:00;12.77;;;7.57;;
25687;SDS011;17407;51.120;3.702;2023-12-04T10:47:27;10.68;;;6.63;;
25687;SDS011;17407;51.120;3.702;2023-12-04T10:49:55;11.50;;;6.90;;
25687;SDS011;17407;51.120;3.702;2023-12-04T10:52:25;10.35;;;6.93;;
25687;SDS011;17407;51.120;3.702;2023-12-04T10:54:53;8.85;;;6.32;;
25687;SDS011;17407;51.120;3.702;2023-12-04T10:57:25;10.25;;;6.45;;
25687;SDS011;17407;51.120;3.702;2023-12-04T10:59:55;10.85;;;7.00;;
25687;SDS011;17407;51.120;3.702;2023-12-04T11:02:24;12.20;;;6.28;;
25687;SDS011;17407;51.120;3.702;2023-12-04T11:04:55;10.25;;;6.43;;
25687;SDS011;17407;51.120;3.702;2023-12-04T11:07:39;12.43;;;7.10;;
25687;SDS011;17407;51.120;3.702;2023-12-04T11:10:08;10.50;;;6.75;;
25687;SDS011;17407;51.120;3.702;2023-12-04T11:12:35;10.32;;;7.03;;
25687;SDS011;17407;51.120;3.702;2023-12-04T11:15:07;11.25;;;6.70;;
25687;SDS011;17407;51.120;3.702;2023-12-04T11:17:35;11.18;;;7.15;;
25687;SDS011;17407;51.120;3.702;2023-12-04T11:20:16;12.07;;;6.95;;
25687;SDS011;17407;51.120;3.702;2023-12-04T11:22:45;11.38;;;7.30;;
25687;SDS011;17407;51.120;3.702;2023-12-04T11:25:13;13.07;;;7.63;;
25687;SDS011;17407;51.120;3.702;2023-12-04T11:27:39;10.98;;;7.55;;
25687;SDS011;17407;51.120;3.702;2023-12-04T11:30:06;8.55;;;5.80;;
25687;SDS011;17407;51.120;3.702;2023-12-04T11:32:37;10.40;;;6.22;;
25687;SDS011;17407;51.120;3.702;2023-12-04T11:35:12;14.20;;;7.53;;
25687;SDS011;17407;51.120;3.702;2023-12-04T11:37:39;12.95;;;6.43;;
25687;SDS011;17407;51.120;3.702;2023-12-04T11:40:08;9.10;;;6.50;;
25687;SDS011;17407;51.120;3.702;2023-12-04T11:42:37;9.77;;;6.72;;
25687;SDS011;17407;51.120;3.702;2023-12-04T11:45:04;9.50;;;5.72;;
25687;SDS011;17407;51.120;3.702;2023-12-04T11:47:30;9.73;;;6.78;;
25687;SDS011;17407;51.120;3.702;2023-12-04T11:50:13;11.57;;;6.50;;
25687;SDS011;17407;51.120;3.702;2023-12-04T11:52:39;9.93;;;6.47;;
25687;SDS011;17407;51.120;3.702;2023-12-04T11:55:05;9.73;;;6.50;;
25687;SDS011;17407;51.120;3.702;2023-12-04T11:57:34;12.63;;;6.43;;
25687;SDS011;17407;51.120;3.702;2023-12-04T12:02:47;11.90;;;6.95;;
25687;SDS011;17407;51.120;3.702;2023-12-04T12:05:26;11.82;;;6.88;;
25687;SDS011;17407;51.120;3.702;2023-12-04T12:07:53;10.02;;;6.40;;
25687;SDS011;17407;51.120;3.702;2023-12-04T12:10:20;11.23;;;5.72;;
25687;SDS011;17407;51.120;3.702;2023-12-04T12:12:46;10.55;;;6.13;;
25687;SDS011;17407;51.120;3.702;2023-12-04T12:15:13;9.68;;;6.35;;
25687;SDS011;17407;51.120;3.702;2023-12-04T12:17:39;9.98;;;6.55;;
25687;SDS011;17407;51.120;3.702;2023-12-04T12:20:09;8.70;;;5.90;;
25687;SDS011;17407;51.120;3.702;2023-12-04T12:22:36;10.35;;;6.22;;
25687;SDS011;17407;51.120;3.702;2023-12-04T12:25:06;11.48;;;6.28;;
25687;SDS011;17407;51.120;3.702;2023-12-04T12:27:33;11.27;;;6.18;;
25687;SDS011;17407;51.120;3.702;2023-12-04T12:29:59;9.88;;;6.25;;
25687;SDS011;17407;51.120;3.702;2023-12-04T12:32:25;9.60;;;5.97;;
25687;SDS011;17407;51.120;3.702;2023-12-04T12:34:52;10.98;;;6.18;;
25687;SDS011;17407;51.120;3.702;2023-12-04T12:37:20;8.40;;;6.63;;
25687;SDS011;17407;51.120;3.702;2023-12-04T12:39:46;10.23;;;5.68;;
25687;SDS011;17407;51.120;3.702;2023-12-04T12:42:20;10.27;;;5.68;;
25687;SDS011;17407;51.120;3.702;2023-12-04T12:44:55;7.10;;;5.38;;
25687;SDS011;17407;51.120;3.702;2023-12-04T12:47:24;8.20;;;5.82;;
25687;SDS011;17407;51.120;3.702;2023-12-04T12:49:50;10.48;;;6.13;;
25687;SDS011;17407;51.120;3.702;2023-12-04T12:52:17;7.70;;;5.75;;
25687;SDS011;17407;51.120;3.702;2023-12-04T12:54:44;8.70;;;6.30;;
25687;SDS011;17407;51.120;3.702;2023-12-04T12:57:10;9.80;;;6.03;;
25687;SDS011;17407;51.120;3.702;2023-12-04T12:59:40;7.75;;;5.53;;
25687;SDS011;17407;51.120;3.702;2023-12-04T13:02:05;9.05;;;5.63;;
25687;SDS011;17407;51.120;3.702;2023-12-04T13:04:39;8.95;;;5.35;;
25687;SDS011;17407;51.120;3.702;2023-12-04T13:07:06;7.78;;;5.68;;
25687;SDS011;17407;51.120;3.702;2023-12-04T13:09:35;9.40;;;6.30;;
25687;SDS011;17407;51.120;3.702;2023-12-04T13:12:01;9.52;;;6.70;;
25687;SDS011;17407;51.120;3.702;2023-12-04T13:14:27;9.80;;;6.60;;
25687;SDS011;17407;51.120;3.702;2023-12-04T13:16:53;7.43;;;5.50;;
25687;SDS011;17407;51.120;3.702;2023-12-04T13:19:20;6.90;;;5.22;;
25687;SDS011;17407;51.120;3.702;2023-12-04T13:21:46;9.77;;;6.20;;
25687;SDS011;17407;51.120;3.702;2023-12-04T13:24:11;9.20;;;6.28;;
25687;SDS011;17407;51.120;3.702;2023-12-04T13:26:37;11.27;;;6.05;;
25687;SDS011;17407;51.120;3.702;2023-12-04T13:29:04;9.32;;;6.35;;
25687;SDS011;17407;51.120;3.702;2023-12-04T13:31:31;8.50;;;6.03;;
25687;SDS011;17407;51.120;3.702;2023-12-04T13:33:57;10.98;;;6.70;;
25687;SDS011;17407;51.120;3.702;2023-12-04T13:36:23;7.85;;;6.03;;
25687;SDS011;17407;51.120;3.702;2023-12-04T13:38:49;9.25;;;6.35;;
25687;SDS011;17407;51.120;3.702;2023-12-04T13:41:16;10.00;;;6.43;;
25687;SDS011;17407;51.120;3.702;2023-12-04T13:44:00;10.20;;;6.38;;
25687;SDS011;17407;51.120;3.702;2023-12-04T13:46:28;9.90;;;6.40;;
25687;SDS011;17407;51.120;3.702;2023-12-04T13:48:54;9.48;;;5.97;;
25687;SDS011;17407;51.120;3.702;2023-12-04T13:51:24;12.70;;;7.30;;
25687;SDS011;17407;51.120;3.702;2023-12-04T13:53:50;10.02;;;6.35;;
25687;SDS011;17407;51.120;3.702;2023-12-04T13:56:21;12.52;;;6.97;;
25687;SDS011;17407;51.120;3.702;2023-12-04T13:59:07;8.77;;;6.60;;
25687;SDS011;17407;51.120;3.702;2023-12-04T14:01:33;8.77;;;5.70;;
25687;SDS011;17407;51.120;3.702;2023-12-04T14:03:59;8.05;;;5.93;;
25687;SDS011;17407;51.120;3.702;2023-12-04T14:06:30;9.50;;;6.40;;
25687;SDS011;17407;51.120;3.702;2023-12-04T14:08:56;8.20;;;6.35;;
25687;SDS011;17407;51.120;3.702;2023-12-04T14:11:22;10.60;;;6.65;;
25687;SDS011;17407;51.120;3.702;2023-12-04T14:13:48;8.65;;;6.22;;
25687;SDS011;17407;51.120;3.702;2023-12-04T14:16:14;8.85;;;6.03;;
25687;SDS011;17407;51.120;3.702;2023-12-04T14:18:41;9.75;;;6.60;;
25687;SDS011;17407;51.120;3.702;2023-12-04T14:21:07;11.32;;;6.78;;
25687;SDS011;17407;51.120;3.702;2023-12-04T14:23:34;8.40;;;6.25;;
25687;SDS011;17407;51.120;3.702;2023-12-04T14:26:00;10.18;;;6.28;;
25687;SDS011;17407;51.120;3.702;2023-12-04T14:28:26;9.27;;;6.72;;
25687;SDS011;17407;51.120;3.702;2023-12-04T14:30:53;9.85;;;6.22;;
25687;SDS011;17407;51.120;3.702;2023-12-04T14:33:19;9.05;;;6.57;;
25687;SDS011;17407;51.120;3.702;2023-12-04T14:35:45;9.82;;;6.22;;
25687;SDS011;17407;51.120;3.702;2023-12-04T14:38:13;14.10;;;6.30;;
25687;SDS011;17407;51.120;3.702;2023-12-04T14:40:40;9.70;;;6.43;;
25687;SDS011;17407;51.120;3.702;2023-12-04T14:43:05;8.82;;;6.70;;
25687;SDS011;17407;51.120;3.702;2023-12-04T14:45:34;8.02;;;6.25;;
25687;SDS011;17407;51.120;3.702;2023-12-04T14:48:01;9.23;;;6.72;;
25687;SDS011;17407;51.120;3.702;2023-12-04T14:50:27;12.75;;;6.97;;